Time;durP1;ratioP1;P1;durP2;ratioP2;P2;SDS_P1;SDS_P2;PMS_P1;PMS_P2;Temp;Humidity;BMP_temperature;BMP_pressure;BME280_temperature;BME280_humidity;BME280_pressure;Samples;Min_cycle;Max_cycle;Signal;HPM_P1;HPM_P2
2023/01/17 00:02:01;;;;;;;4.82;1.00;;;;;;;2.75;100.00;98060.50;5072923;28;20432;-59
2023/01/17 00:10:07;;;;;;;4.32;1.00;;;;;;;2.81;100.00;98079.97;5074446;28;20078;-59
2023/01/17 00:12:36;;;;;;;5.80;1.05;;;;;;;2.78;100.00;98082.81;5074415;28;20090;-59
2023/01/17 00:15:05;;;;;;;5.53;1.15;;;;;;;2.76;100.00;98077.75;5074380;28;20445;-59
2023/01/17 00:17:33;;;;;;;5.57;1.00;;;;;;;2.75;100.00;98089.06;5070465;28;20530;-59
2023/01/17 01:35:49;;;;;;;7.05;1.75;;;;;;;2.09;100.00;98245.25;5073036;28;20041;-58
2023/01/17 01:38:18;;;;;;;1.75;0.75;;;;;;;2.06;100.00;98249.81;5071646;28;20390;-58
2023/01/17 01:40:48;;;;;;;2.83;0.52;;;;;;;1.85;100.00;98266.81;5070279;28;20049;-59
2023/01/17 01:43:20;;;;;;;1.25;0.50;;;;;;;1.80;100.00;98271.47;5072802;28;20051;-58
2023/01/17 01:45:52;;;;;;;1.73;0.63;;;;;;;1.71;100.00;98277.28;5072279;28;20075;-59
2023/01/17 01:48:35;;;;;;;3.00;0.70;;;;;;;1.67;100.00;98283.63;5069760;28;20052;-58
2023/01/17 01:51:07;;;;;;;1.45;0.60;;;;;;;1.63;100.00;98298.53;5071986;28;20543;-58
2023/01/17 01:53:40;;;;;;;1.65;0.70;;;;;;;1.54;100.00;98296.63;5072886;28;20075;-58
2023/01/17 01:56:12;;;;;;;1.55;0.60;;;;;;;1.42;100.00;98290.50;5072799;28;20427;-58
2023/01/17 01:58:45;;;;;;;1.17;0.60;;;;;;;1.41;100.00;98291.41;5071453;28;20048;-58
2023/01/17 02:01:14;;;;;;;2.28;0.60;;;;;;;1.41;100.00;98301.78;5072689;28;20044;-58
2023/01/17 02:03:44;;;;;;;0.68;0.50;;;;;;;1.41;100.00;98295.78;5070614;28;20499;-59
2023/01/17 02:06:26;;;;;;;2.63;0.70;;;;;;;1.38;100.00;98294.22;5070983;28;20057;-59
2023/01/17 02:08:58;;;;;;;2.05;0.80;;;;;;;1.33;100.00;98296.28;5072188;28;20052;-59
2023/01/17 02:11:27;;;;;;;1.13;0.50;;;;;;;1.38;100.00;98295.97;5072223;28;20040;-60
2023/01/17 02:13:57;;;;;;;1.45;0.70;;;;;;;1.41;100.00;98309.56;5072520;28;20143;-59
2023/01/17 02:16:46;;;;;;;1.17;0.80;;;;;;;1.38;100.00;98316.69;5072458;28;20061;-59
2023/01/17 02:19:36;;;;;;;2.78;0.82;;;;;;;1.32;100.00;98312.75;5072534;28;20044;-59
2023/01/17 02:22:31;;;;;;;1.40;0.77;;;;;;;1.32;100.00;98330.88;5070666;28;20551;-59
2023/01/17 02:25:19;;;;;;;1.25;0.82;;;;;;;1.26;100.00;98336.50;5069179;28;20052;-59
2023/01/17 02:28:04;;;;;;;0.77;0.75;;;;;;;1.29;100.00;98344.88;5072177;28;20501;-59
2023/01/17 02:30:36;;;;;;;1.38;0.80;;;;;;;1.27;100.00;98338.97;5070991;28;20483;-59
2023/01/17 02:33:21;;;;;;;1.65;0.93;;;;;;;1.32;100.00;98349.88;5072338;28;20048;-59
2023/01/17 02:36:04;;;;;;;2.40;1.48;;;;;;;1.33;100.00;98350.69;5072139;28;20098;-59
2023/01/17 02:38:43;;;;;;;1.48;0.93;;;;;;;1.25;100.00;98348.59;5070577;28;20123;-59
2023/01/17 02:41:19;;;;;;;1.98;1.00;;;;;;;1.30;100.00;98348.31;5069255;28;20052;-59
2023/01/17 02:43:49;;;;;;;0.98;0.88;;;;;;;1.28;100.00;98356.19;5071114;28;20054;-59
2023/01/17 02:46:18;;;;;;;2.95;0.98;;;;;;;1.24;100.00;98357.31;5072283;28;20483;-59
2023/01/17 02:48:48;;;;;;;5.05;1.10;;;;;;;1.22;100.00;98358.34;5071930;28;20055;-59
2023/01/17 02:51:28;;;;;;;2.47;1.00;;;;;;;1.22;100.00;98356.56;5070388;28;20135;-59
2023/01/17 02:54:13;;;;;;;3.53;0.98;;;;;;;1.23;100.00;98370.34;5068366;28;20045;-60
2023/01/17 02:56:52;;;;;;;1.33;0.65;;;;;;;1.24;100.00;98380.63;5070618;28;20067;-59
2023/01/17 02:59:33;;;;;;;1.08;0.70;;;;;;;1.23;100.00;98378.94;5068897;28;20082;-59
2023/01/17 03:02:10;;;;;;;2.13;1.00;;;;;;;1.23;100.00;98380.69;5069934;28;20495;-60
2023/01/17 03:04:48;;;;;;;2.40;1.27;;;;;;;1.29;100.00;98380.31;5071782;28;20052;-59
2023/01/17 03:07:22;;;;;;;4.85;1.85;;;;;;;1.24;100.00;98384.94;5072130;28;20048;-59
2023/01/17 03:09:58;;;;;;;2.78;1.35;;;;;;;1.20;100.00;98389.53;5070620;28;20094;-58
2023/01/17 03:12:27;;;;;;;7.60;1.52;;;;;;;1.24;100.00;98395.31;5069044;28;20098;-58
2023/01/17 03:14:58;;;;;;;2.70;1.50;;;;;;;1.22;100.00;98397.19;5071316;28;20453;-58
2023/01/17 03:17:32;;;;;;;2.47;1.33;;;;;;;1.18;100.00;98410.31;5071860;28;20500;-58
2023/01/17 03:20:00;;;;;;;1.65;1.02;;;;;;;1.15;100.00;98407.09;5071930;28;20052;-58
2023/01/17 03:22:28;;;;;;;1.33;0.80;;;;;;;1.08;100.00;98398.91;5071773;28;20048;-58
2023/01/17 03:24:56;;;;;;;1.15;0.90;;;;;;;1.07;100.00;98394.66;5072639;28;20408;-58
2023/01/17 03:27:24;;;;;;;0.98;0.70;;;;;;;1.04;100.00;98391.41;5072977;28;20052;-59
2023/01/17 03:29:52;;;;;;;2.72;1.08;;;;;;;1.04;100.00;98381.91;5074428;28;20051;-59
2023/01/17 03:32:20;;;;;;;3.40;1.40;;;;;;;1.07;100.00;98386.88;5074989;28;20449;-59
2023/01/17 03:34:50;;;;;;;3.15;1.20;;;;;;;1.04;100.00;98400.03;5073595;28;20059;-59
2023/01/17 03:37:18;;;;;;;2.53;1.40;;;;;;;1.03;100.00;98403.53;5075318;28;20132;-59
2023/01/17 03:39:46;;;;;;;3.03;1.20;;;;;;;1.03;100.00;98405.31;5075166;28;20194;-60
2023/01/17 03:42:14;;;;;;;3.42;1.08;;;;;;;0.98;100.00;98406.44;5074858;28;20068;-60
2023/01/17 03:44:42;;;;;;;2.88;1.10;;;;;;;1.02;100.00;98407.06;5074639;28;20045;-60
2023/01/17 03:47:10;;;;;;;1.98;1.00;;;;;;;1.04;100.00;98412.13;5074521;28;20102;-60
2023/01/17 03:49:39;;;;;;;2.28;0.98;;;;;;;1.08;100.00;98414.44;5071968;28;20450;-60
2023/01/17 03:52:09;;;;;;;3.72;1.20;;;;;;;1.03;100.00;98421.66;5071090;28;20051;-60
2023/01/17 03:54:37;;;;;;;3.47;1.88;;;;;;;1.00;100.00;98427.88;5073703;28;20056;-60
2023/01/17 03:57:05;;;;;;;3.38;0.90;;;;;;;0.93;100.00;98433.56;5070401;28;20079;-60
2023/01/17 03:59:35;;;;;;;4.38;0.90;;;;;;;0.98;100.00;98440.09;5071881;28;20047;-61
2023/01/17 04:02:04;;;;;;;3.13;0.70;;;;;;;0.94;100.00;98448.13;5074479;28;20056;-60
2023/01/17 04:04:32;;;;;;;3.58;0.90;;;;;;;0.94;100.00;98453.31;5074518;28;20048;-60
2023/01/17 04:07:01;;;;;;;2.25;0.70;;;;;;;0.92;100.00;98442.25;5074132;28;20120;-60
2023/01/17 04:09:32;;;;;;;2.75;0.90;;;;;;;0.91;100.00;98438.00;5074043;28;20117;-61
2023/01/17 04:12:02;;;;;;;6.20;1.10;;;;;;;0.84;100.00;98446.13;5074270;28;20054;-63
2023/01/17 04:14:30;;;;;;;2.30;0.60;;;;;;;0.80;100.00;98446.44;5072162;28;20052;-61
2023/01/17 04:16:58;;;;;;;2.42;0.98;;;;;;;0.81;100.00;98442.91;5069004;28;20076;-61
2023/01/17 04:19:27;;;;;;;2.03;0.68;;;;;;;0.77;100.00;98452.63;5072597;28;20048;-61
2023/01/17 04:21:55;;;;;;;4.85;1.02;;;;;;;0.75;100.00;98454.50;5073930;28;20040;-61
2023/01/17 04:24:23;;;;;;;2.85;0.75;;;;;;;0.71;100.00;98453.03;5074212;28;20070;-61
2023/01/17 04:26:52;;;;;;;1.25;0.70;;;;;;;0.71;100.00;98447.84;5073960;28;20119;-61
2023/01/17 04:29:21;;;;;;;3.05;0.93;;;;;;;0.70;100.00;98447.94;5073991;28;20048;-61
2023/01/17 04:31:49;;;;;;;3.88;0.80;;;;;;;0.75;100.00;98448.47;5074055;28;20044;-61
2023/01/17 04:34:17;;;;;;;3.92;1.05;;;;;;;0.77;100.00;98442.28;5073858;28;20047;-61
2023/01/17 04:36:45;;;;;;;5.50;1.42;;;;;;;0.65;100.00;98449.03;5073691;28;20036;-61
2023/01/17 04:39:13;;;;;;;3.42;1.20;;;;;;;0.61;100.00;98454.50;5072292;28;20538;-49
2023/01/17 04:41:42;;;;;;;4.03;1.40;;;;;;;0.57;100.00;98455.63;5069590;28;20174;-52
2023/01/17 04:44:12;;;;;;;4.07;1.40;;;;;;;0.49;100.00;98462.13;5072144;28;20048;-52
2023/01/17 04:46:40;;;;;;;5.28;1.70;;;;;;;0.48;100.00;98455.28;5073478;28;20131;-53
2023/01/17 04:49:08;;;;;;;3.75;1.60;;;;;;;0.47;100.00;98450.19;5073455;28;20121;-54
2023/01/17 04:51:36;;;;;;;4.35;1.73;;;;;;;0.42;100.00;98455.63;5073272;28;20048;-52
2023/01/17 04:54:04;;;;;;;6.53;1.83;;;;;;;0.43;100.00;98462.47;5073277;28;20032;-52
2023/01/17 04:56:32;;;;;;;6.55;2.10;;;;;;;0.37;100.00;98449.09;5073606;28;20051;-50
2023/01/17 04:59:01;;;;;;;4.88;1.65;;;;;;;0.40;100.00;98449.75;5073259;28;20479;-53
2023/01/17 05:01:30;;;;;;;6.18;1.85;;;;;;;0.41;100.00;98453.16;5072281;28;20075;-52
2023/01/17 05:03:58;;;;;;;5.45;1.92;;;;;;;0.35;100.00;98451.78;5069251;28;20042;-54
2023/01/17 05:06:27;;;;;;;3.22;1.55;;;;;;;0.30;100.00;98448.63;5070218;28;20052;-52
2023/01/17 05:08:55;;;;;;;7.70;1.92;;;;;;;0.29;100.00;98452.16;5073027;28;20450;-52
2023/01/17 05:11:26;;;;;;;7.30;2.13;;;;;;;0.27;100.00;98461.75;5073203;28;20444;-53
2023/01/17 05:13:54;;;;;;;4.28;1.50;;;;;;;0.24;100.00;98465.34;5072944;28;20102;-52
2023/01/17 05:16:22;;;;;;;5.45;1.58;;;;;;;0.24;100.00;98470.53;5071721;28;20733;-51
2023/01/17 05:18:53;;;;;;;9.40;2.13;;;;;;;0.24;100.00;98472.28;5068708;28;20044;-51
2023/01/17 05:21:22;;;;;;;4.13;1.60;;;;;;;0.25;100.00;98472.19;5071310;28;20109;-52
2023/01/17 05:23:50;;;;;;;4.50;1.42;;;;;;;0.25;100.00;98472.19;5072636;28;20064;-52
2023/01/17 05:26:18;;;;;;;5.90;2.08;;;;;;;0.24;100.00;98480.03;5072760;28;20499;-52
2023/01/17 05:28:47;;;;;;;3.67;1.45;;;;;;;0.13;100.00;98472.94;5072680;28;20118;-49
2023/01/17 05:31:15;;;;;;;4.18;1.60;;;;;;;0.20;100.00;98475.97;5072628;28;20049;-49
2023/01/17 05:33:43;;;;;;;6.78;1.58;;;;;;;0.20;100.00;98473.41;5070450;28;20041;-50
2023/01/17 05:36:13;;;;;;;5.68;1.75;;;;;;;0.13;100.00;98483.28;5069399;28;20046;-55
2023/01/17 05:38:41;;;;;;;7.05;1.63;;;;;;;0.12;100.00;98487.63;5071405;28;20040;-53
2023/01/17 05:41:09;;;;;;;7.70;1.75;;;;;;;0.07;100.00;98489.63;5069089;28;20110;-52
2023/01/17 05:43:37;;;;;;;6.65;1.85;;;;;;;0.12;100.00;98487.63;5078942;28;20085;-51
2023/01/17 05:46:05;;;;;;;9.93;1.83;;;;;;;0.15;100.00;98496.91;5074112;28;20507;-53
2023/01/17 05:48:33;;;;;;;4.75;1.60;;;;;;;0.12;100.00;98503.13;5081674;28;20083;-50
2023/01/17 05:51:02;;;;;;;4.30;1.60;;;;;;;0.12;100.00;98497.97;5078503;28;20428;-53
2023/01/17 05:53:31;;;;;;;5.63;1.60;;;;;;;0.07;100.00;98509.47;5083179;28;20066;-53
2023/01/17 05:56:00;;;;;;;7.07;1.50;;;;;;;0.02;100.00;98501.19;5071401;28;20044;-54
2023/01/17 05:58:28;;;;;;;5.25;1.90;;;;;;;0.05;100.00;98501.81;5071131;28;20079;-52
2023/01/17 06:00:56;;;;;;;3.53;1.63;;;;;;;0.01;100.00;98509.84;5073890;28;20047;-52
2023/01/17 06:03:24;;;;;;;6.43;1.67;;;;;;;0.07;100.00;98512.06;5073252;28;20074;-54
2023/01/17 06:05:52;;;;;;;6.60;1.40;;;;;;;0.09;100.00;98513.63;5072469;28;20044;-53
2023/01/17 06:08:22;;;;;;;6.35;1.70;;;;;;;0.07;100.00;98522.38;5072381;28;20078;-53
2023/01/17 06:10:51;;;;;;;5.43;1.48;;;;;;;0.02;100.00;98524.44;5072115;28;20106;-51
2023/01/17 06:13:22;;;;;;;5.50;1.58;;;;;;;0.01;100.00;98526.16;5072171;28;20124;-52
2023/01/17 06:15:50;;;;;;;5.32;1.90;;;;;;;-0.07;100.00;98523.19;5069070;28;20055;-53
2023/01/17 06:18:19;;;;;;;5.55;1.60;;;;;;;0.01;100.00;98527.94;5067639;28;20090;-53
2023/01/17 06:20:53;;;;;;;9.07;1.70;;;;;;;0.02;100.00;98522.66;5070927;28;20048;-54
2023/01/17 06:23:22;;;;;;;4.70;1.50;;;;;;;0.03;100.00;98520.91;5071348;28;20037;-50
2023/01/17 06:25:52;;;;;;;5.18;1.50;;;;;;;0.02;100.00;98516.69;5068364;28;20471;-51
2023/01/17 06:28:22;;;;;;;5.60;1.52;;;;;;;-0.01;100.00;98522.88;5070640;28;20446;-52
2023/01/17 06:30:50;;;;;;;4.88;1.50;;;;;;;-0.03;100.00;98519.53;5072513;28;20087;-50
2023/01/17 06:33:18;;;;;;;6.57;1.48;;;;;;;-0.01;100.00;98530.63;5072143;28;20114;-53
2023/01/17 06:35:51;;;;;;;5.13;1.55;;;;;;;0.00;100.00;98534.88;5072393;28;20526;-51
2023/01/17 06:38:19;;;;;;;6.38;1.75;;;;;;;-0.03;100.00;98542.78;5070636;28;20040;-61
2023/01/17 06:40:47;;;;;;;6.30;2.10;;;;;;;-0.03;100.00;98533.28;5068349;28;20504;-62
2023/01/17 06:43:17;;;;;;;8.02;2.28;;;;;;;-0.07;100.00;98541.28;5070823;28;20076;-62
2023/01/17 06:45:45;;;;;;;5.60;2.22;;;;;;;-0.10;100.00;98544.88;5071794;28;20419;-62
2023/01/17 06:48:14;;;;;;;10.30;2.53;;;;;;;-0.16;100.00;98550.41;5071802;28;20048;-62
2023/01/17 06:50:42;;;;;;;11.45;2.33;;;;;;;-0.15;100.00;98552.09;5071718;28;20048;-62
2023/01/17 06:53:10;;;;;;;5.00;1.90;;;;;;;-0.19;100.00;98550.59;5071683;28;20111;-61
2023/01/17 06:55:39;;;;;;;6.22;2.25;;;;;;;-0.21;100.00;98548.09;5071747;28;20041;-61
2023/01/17 06:58:09;;;;;;;6.32;2.00;;;;;;;-0.22;100.00;98551.63;5071134;28;20048;-60
2023/01/17 07:00:39;;;;;;;6.90;2.05;;;;;;;-0.21;100.00;98549.84;5075251;28;20055;-60
2023/01/17 07:03:18;;;;;;;7.22;2.08;;;;;;;-0.23;100.00;98552.53;5075520;28;20656;-60
2023/01/17 07:05:46;;;;;;;7.43;2.72;;;;;;;-0.27;100.00;98550.19;5074031;28;20411;-60
2023/01/17 07:08:15;;;;;;;9.43;2.90;;;;;;;-0.30;100.00;98551.22;5072755;28;20072;-60
2023/01/17 07:10:44;;;;;;;7.68;3.03;;;;;;;-0.27;100.00;98543.28;5071767;28;20071;-60
2023/01/17 07:13:13;;;;;;;8.13;2.55;;;;;;;-0.28;100.00;98543.38;5075247;28;20045;-60
2023/01/17 07:15:42;;;;;;;9.65;3.05;;;;;;;-0.27;100.00;98548.44;5075536;28;20068;-60
2023/01/17 07:18:11;;;;;;;6.25;2.92;;;;;;;-0.27;100.00;98555.34;5073331;28;20464;-60
2023/01/17 07:20:40;;;;;;;7.70;3.10;;;;;;;-0.31;100.00;98556.44;5071297;28;20048;-60
2023/01/17 07:23:08;;;;;;;11.07;3.85;;;;;;;-0.32;100.00;98550.47;5074601;28;20098;-60
2023/01/17 07:25:36;;;;;;;10.40;3.38;;;;;;;-0.31;100.00;98548.69;5071311;28;20044;-60
2023/01/17 07:28:04;;;;;;;9.60;3.50;;;;;;;-0.30;100.00;98551.22;5072857;28;20068;-60
2023/01/17 07:30:32;;;;;;;9.30;3.50;;;;;;;-0.31;100.00;98557.28;5072502;28;20049;-61
2023/01/17 07:33:02;;;;;;;12.82;4.75;;;;;;;-0.32;100.00;98562.56;5069640;28;20040;-61
2023/01/17 07:35:30;;;;;;;11.00;4.45;;;;;;;-0.30;100.00;98566.72;5073286;28;20124;-60
2023/01/17 07:37:58;;;;;;;9.68;3.40;;;;;;;-0.27;100.00;98569.13;5071489;28;20059;-60
2023/01/17 07:40:26;;;;;;;7.60;3.25;;;;;;;-0.26;100.00;98572.53;5071871;28;20044;-60
2023/01/17 07:43:00;;;;;;;7.35;2.75;;;;;;;-0.28;100.00;98575.19;5074647;28;20036;-60
2023/01/17 07:45:29;;;;;;;7.25;3.55;;;;;;;-0.25;100.00;98569.03;5074588;28;20072;-60
2023/01/17 07:47:57;;;;;;;8.50;3.60;;;;;;;-0.21;100.00;98570.53;5071101;28;20421;-60
2023/01/17 07:50:26;;;;;;;9.57;3.83;;;;;;;-0.18;100.00;98568.59;5071277;28;20131;-61
2023/01/17 07:52:55;;;;;;;14.00;4.15;;;;;;;-0.22;100.00;98567.13;5073245;28;20068;-61
2023/01/17 07:55:23;;;;;;;11.57;3.83;;;;;;;-0.17;100.00;98565.06;5071621;28;20059;-61
2023/01/17 07:57:51;;;;;;;12.20;4.85;;;;;;;-0.13;100.00;98560.56;5072769;28;20352;-61
2023/01/17 08:00:21;;;;;;;17.25;5.40;;;;;;;-0.09;100.00;98571.56;5074438;28;20044;-61
2023/01/17 08:02:50;;;;;;;14.98;5.32;;;;;;;-0.10;100.00;98569.91;5074332;28;20075;-61
2023/01/17 08:05:18;;;;;;;15.30;4.68;;;;;;;-0.04;100.00;98572.97;5073818;28;20148;-61
2023/01/17 08:07:47;;;;;;;13.50;5.10;;;;;;;-0.06;100.00;98572.22;5070386;28;20549;-61
2023/01/17 08:10:17;;;;;;;11.23;4.60;;;;;;;-0.01;100.00;98579.72;5072125;28;20075;-61
2023/01/17 08:12:46;;;;;;;16.92;5.70;;;;;;;-0.02;100.00;98576.28;5074035;28;20120;-61
2023/01/17 08:15:15;;;;;;;12.30;4.63;;;;;;;0.01;100.00;98571.88;5074025;28;20037;-61
2023/01/17 08:17:46;;;;;;;14.82;5.43;;;;;;;0.04;100.00;98572.53;5073848;28;20114;-61
2023/01/17 08:20:18;;;;;;;11.27;5.03;;;;;;;0.09;100.00;98572.25;5072044;28;20564;-61
2023/01/17 08:22:47;;;;;;;11.80;4.30;;;;;;;0.17;100.00;98576.06;5069894;28;20075;-60
2023/01/17 08:25:15;;;;;;;11.38;5.22;;;;;;;0.23;100.00;98582.66;5072860;28;20094;-61
2023/01/17 08:27:44;;;;;;;13.80;5.15;;;;;;;0.20;100.00;98581.97;5070772;28;20045;-61
2023/01/17 08:30:12;;;;;;;12.45;5.03;;;;;;;0.14;100.00;98581.41;5070347;28;20079;-61
2023/01/17 08:32:40;;;;;;;10.95;5.85;;;;;;;0.19;100.00;98590.66;5072623;28;20056;-61
2023/01/17 08:35:09;;;;;;;12.85;5.55;;;;;;;0.15;100.00;98587.41;5070346;28;20041;-61
2023/01/17 08:37:40;;;;;;;12.80;6.33;;;;;;;0.20;100.00;98587.16;5072647;28;20120;-61
2023/01/17 08:40:15;;;;;;;20.65;8.10;;;;;;;0.42;100.00;98589.28;5072477;28;20040;-61
2023/01/17 08:42:53;;;;;;;13.65;7.85;;;;;;;0.59;100.00;98593.50;5070038;28;20479;-61
2023/01/17 08:45:22;;;;;;;16.23;8.23;;;;;;;0.58;100.00;98584.88;5071756;28;20055;-61
2023/01/17 08:47:50;;;;;;;15.63;7.80;;;;;;;0.55;100.00;98589.41;5073433;28;20135;-61
2023/01/17 08:50:20;;;;;;;21.75;8.15;;;;;;;0.53;100.00;98586.91;5070910;28;20052;-61
2023/01/17 08:52:48;;;;;;;15.02;7.97;;;;;;;0.54;100.00;98588.56;5069125;28;20091;-60
2023/01/17 08:55:18;;;;;;;16.83;8.90;;;;;;;0.55;100.00;98589.41;5072649;28;20044;-61
2023/01/17 08:57:46;;;;;;;16.85;9.68;;;;;;;0.60;100.00;98589.94;5069434;28;20036;-60
2023/01/17 09:00:15;;;;;;;16.52;9.68;;;;;;;0.65;100.00;98590.50;5070280;28;20056;-60
2023/01/17 09:02:43;;;;;;;15.95;9.13;;;;;;;0.76;100.00;98589.88;5073187;28;20574;-60
2023/01/17 09:05:15;;;;;;;17.10;10.07;;;;;;;0.77;100.00;98597.53;5069794;28;20505;-61
2023/01/17 09:07:43;;;;;;;19.70;9.73;;;;;;;0.86;100.00;98603.06;5069276;28;20053;-60
2023/01/17 09:10:11;;;;;;;19.40;10.70;;;;;;;0.90;100.00;98601.97;5073173;28;20040;-60
2023/01/17 09:12:41;;;;;;;20.17;10.20;;;;;;;0.96;100.00;98601.59;5073351;28;20521;-60
2023/01/17 09:15:13;;;;;;;26.58;10.73;;;;;;;1.02;100.00;98606.38;5073310;28;20041;-59
2023/01/17 09:17:41;;;;;;;20.70;10.45;;;;;;;1.03;100.00;98615.81;5073118;28;20056;-59
2023/01/17 09:20:11;;;;;;;20.17;11.55;;;;;;;1.06;100.00;98620.81;5073347;28;20048;-59
2023/01/17 09:22:39;;;;;;;17.27;10.20;;;;;;;1.11;100.00;98621.38;5072552;28;20498;-59
2023/01/17 09:25:08;;;;;;;18.95;9.90;;;;;;;1.13;100.00;98622.13;5072948;28;20140;-59
2023/01/17 09:27:38;;;;;;;19.60;10.73;;;;;;;1.06;100.00;98620.00;5071479;28;20117;-59
2023/01/17 09:30:11;;;;;;;18.60;10.02;;;;;;;1.17;100.00;98623.59;5069793;28;20076;-59
2023/01/17 09:32:39;;;;;;;17.63;9.45;;;;;;;1.21;100.00;98628.56;5073042;28;20041;-59
2023/01/17 09:35:08;;;;;;;20.13;10.05;;;;;;;1.22;100.00;98636.25;5072561;28;20487;-59
2023/01/17 09:37:37;;;;;;;19.40;10.93;;;;;;;1.32;100.00;98636.50;5072472;28;20045;-59
2023/01/17 09:40:06;;;;;;;17.95;9.20;;;;;;;1.31;100.00;98638.28;5072095;28;20098;-60
2023/01/17 09:42:37;;;;;;;18.67;9.50;;;;;;;1.35;100.00;98649.28;5072431;28;20048;-59
2023/01/17 09:45:13;;;;;;;18.00;9.27;;;;;;;1.47;100.00;98653.69;5072227;28;20509;-59
2023/01/17 09:47:45;;;;;;;18.83;9.77;;;;;;;1.49;100.00;98656.19;5072625;28;20048;-59
2023/01/17 09:50:25;;;;;;;15.80;9.80;;;;;;;1.70;100.00;98656.59;5072500;28;20051;-59
2023/01/17 09:52:59;;;;;;;20.77;8.93;;;;;;;1.88;100.00;98653.75;5072474;28;20383;-60
2023/01/17 09:55:34;;;;;;;14.43;8.45;;;;;;;2.05;100.00;98660.47;5072711;28;20123;-60
2023/01/17 09:58:10;;;;;;;17.60;8.35;;;;;;;2.00;100.00;98661.59;5071488;28;20056;-59
2023/01/17 10:00:47;;;;;;;14.75;8.30;;;;;;;2.03;100.00;98665.72;5068214;28;20036;-60
2023/01/17 10:03:29;;;;;;;18.23;9.07;;;;;;;2.09;100.00;98667.13;5069870;28;20087;-60
2023/01/17 10:06:14;;;;;;;19.15;8.93;;;;;;;2.05;100.00;98673.44;5068267;28;20530;-60
2023/01/17 10:08:58;;;;;;;17.83;9.25;;;;;;;2.18;100.00;98674.28;5069607;28;20423;-60
2023/01/17 10:11:38;;;;;;;20.15;8.73;;;;;;;2.25;100.00;98666.94;5072290;28;20052;-60
2023/01/17 10:14:21;;;;;;;14.57;7.15;;;;;;;2.25;100.00;98666.94;5072151;28;20067;-60
2023/01/17 10:16:55;;;;;;;13.57;7.57;;;;;;;2.26;100.00;98666.81;5072194;28;20048;-60
2023/01/17 10:19:46;;;;;;;17.83;7.20;;;;;;;2.27;100.00;98670.28;5072287;28;20075;-60
2023/01/17 10:22:33;;;;;;;11.27;6.65;;;;;;;2.29;100.00;98676.16;5071762;28;20792;-60
2023/01/17 10:25:34;;;;;;;11.20;6.32;;;;;;;2.39;100.00;98679.84;5071891;28;20055;-60
2023/01/17 10:28:10;;;;;;;11.90;6.05;;;;;;;2.32;100.00;98668.22;5072061;28;20044;-60
2023/01/17 10:30:44;;;;;;;11.52;6.05;;;;;;;2.33;100.00;98672.44;5068448;28;20044;-60
2023/01/17 10:33:18;;;;;;;14.48;6.13;;;;;;;2.43;100.00;98662.31;5069066;28;20525;-60
2023/01/17 10:35:54;;;;;;;11.88;6.03;;;;;;;2.34;100.00;98663.75;5076166;28;20041;-60
2023/01/17 10:38:27;;;;;;;10.75;6.00;;;;;;;2.29;100.00;98663.19;5074314;28;20091;-60
2023/01/17 10:41:02;;;;;;;12.05;6.25;;;;;;;2.43;100.00;98664.91;5072121;28;20208;-60
2023/01/17 10:43:39;;;;;;;15.43;6.78;;;;;;;2.40;100.00;98663.34;5075823;28;20037;-60
2023/01/17 10:46:15;;;;;;;11.50;6.35;;;;;;;2.39;100.00;98660.81;5075804;28;20107;-60
2023/01/17 10:48:49;;;;;;;11.00;5.68;;;;;;;2.40;100.00;98655.56;5076093;28;20503;-60
2023/01/17 10:51:58;;;;;;;11.02;5.50;;;;;;;2.49;100.00;98662.72;5075801;28;20476;-60
2023/01/17 10:54:40;;;;;;;11.65;5.55;;;;;;;2.54;100.00;98660.66;5074730;28;20503;-60
2023/01/17 10:57:14;;;;;;;9.05;5.18;;;;;;;2.54;100.00;98665.84;5072544;28;20510;-61
2023/01/17 10:59:43;;;;;;;11.27;6.05;;;;;;;2.61;100.00;98662.84;5072920;28;20155;-61
2023/01/17 11:02:20;;;;;;;10.88;5.50;;;;;;;2.60;100.00;98659.41;5075621;28;20426;-60
2023/01/17 11:04:53;;;;;;;9.23;5.38;;;;;;;2.62;100.00;98662.75;5073515;28;20507;-60
2023/01/17 11:07:23;;;;;;;14.68;5.32;;;;;;;2.68;100.00;98664.09;5072270;28;20140;-60
2023/01/17 11:09:54;;;;;;;9.60;4.80;;;;;;;2.72;100.00;98662.94;5074332;28;20407;-60
2023/01/17 11:12:27;;;;;;;14.27;5.30;;;;;;;2.72;100.00;98662.13;5072049;28;20067;-60
2023/01/17 11:15:06;;;;;;;9.77;4.97;;;;;;;2.75;100.00;98657.53;5070863;28;20494;-60
2023/01/17 11:17:36;;;;;;;13.25;5.38;;;;;;;2.78;100.00;98669.50;5073232;28;20041;-60
2023/01/17 11:20:19;;;;;;;10.73;5.43;;;;;;;2.74;100.00;98663.69;5070917;28;20053;-60
2023/01/17 11:23:02;;;;;;;10.90;5.63;;;;;;;2.63;100.00;98663.56;5073923;28;20055;-60
2023/01/17 11:25:33;;;;;;;13.38;5.20;;;;;;;2.72;100.00;98662.94;5074423;28;20040;-60
2023/01/17 11:28:04;;;;;;;9.48;4.90;;;;;;;2.69;100.00;98663.16;5071280;28;20076;-60
2023/01/17 11:30:32;;;;;;;10.20;5.20;;;;;;;2.70;100.00;98664.84;5073751;28;20618;-60
2023/01/17 11:33:03;;;;;;;10.35;4.55;;;;;;;2.71;100.00;98656.09;5075059;28;20377;-60
2023/01/17 11:35:34;;;;;;;8.23;4.10;;;;;;;2.73;100.00;98654.22;5074988;28;20510;-60
2023/01/17 11:38:11;;;;;;;8.32;4.43;;;;;;;2.61;100.00;98652.47;5075040;28;20048;-60
2023/01/17 11:40:41;;;;;;;7.97;4.10;;;;;;;2.62;100.00;98649.75;5074955;28;20079;-60
2023/01/17 11:43:22;;;;;;;8.50;4.40;;;;;;;2.66;100.00;98648.63;5074552;28;20048;-61
2023/01/17 11:46:05;;;;;;;10.80;4.90;;;;;;;2.65;100.00;98648.72;5073668;28;20053;-60
2023/01/17 11:48:36;;;;;;;10.18;4.15;;;;;;;2.53;100.00;98648.59;5074800;28;20045;-60
2023/01/17 11:51:21;;;;;;;11.00;4.75;;;;;;;2.54;100.00;98650.28;5074799;28;20068;-60
2023/01/17 11:53:49;;;;;;;9.10;4.20;;;;;;;2.56;100.00;98647.56;5074571;28;20122;-60
2023/01/17 11:56:21;;;;;;;11.48;3.97;;;;;;;2.56;100.00;98649.34;5074416;28;20563;-60
2023/01/17 11:58:50;;;;;;;9.27;3.92;;;;;;;2.57;100.00;98641.44;5071926;28;20083;-59
2023/01/17 12:01:32;;;;;;;6.78;3.58;;;;;;;2.67;100.00;98641.66;5069999;28;20083;-60
2023/01/17 12:04:27;;;;;;;7.18;3.42;;;;;;;2.60;100.00;98643.00;5071309;28;20392;-60
2023/01/17 12:07:26;;;;;;;8.10;3.45;;;;;;;2.52;100.00;98639.19;5064708;28;20048;-60
2023/01/17 12:10:05;;;;;;;9.27;4.22;;;;;;;2.58;100.00;98643.13;5064142;28;20060;-60
2023/01/17 12:15:48;;;;;;;7.85;3.20;;;;;;;2.59;100.00;98628.38;5074252;28;20144;-61
2023/01/17 12:18:33;;;;;;;11.15;3.85;;;;;;;2.56;100.00;98632.00;5073753;28;20128;-61
2023/01/17 12:21:15;;;;;;;7.95;3.60;;;;;;;2.59;100.00;98636.16;5074256;28;20067;-61
2023/01/17 12:23:56;;;;;;;9.05;3.38;;;;;;;2.51;100.00;98634.09;5070152;28;20560;-61
2023/01/17 12:26:36;;;;;;;6.03;2.90;;;;;;;2.49;100.00;98634.16;5070874;28;20051;-60
2023/01/17 12:29:38;;;;;;;8.65;3.35;;;;;;;2.44;100.00;98632.81;5074108;28;20053;-61
2023/01/17 12:32:28;;;;;;;8.55;3.58;;;;;;;2.50;100.00;98630.66;5037353;28;20098;-60
2023/01/17 12:35:03;;;;;;;6.65;3.25;;;;;;;2.44;100.00;98632.81;5067862;28;20060;-61
2023/01/17 12:37:37;;;;;;;9.27;3.88;;;;;;;2.48;100.00;98634.28;5072708;28;20483;-60
2023/01/17 12:40:21;;;;;;;8.15;3.10;;;;;;;2.50;100.00;98630.66;5073792;28;20098;-60
2023/01/17 12:42:53;;;;;;;7.47;3.65;;;;;;;2.59;100.00;98637.00;5073727;28;20101;-60
2023/01/17 12:45:27;;;;;;;7.90;3.20;;;;;;;2.56;100.00;98641.56;5073650;28;20551;-60
2023/01/17 12:48:01;;;;;;;7.63;3.00;;;;;;;2.64;100.00;98639.28;5073501;28;20446;-60
2023/01/17 12:50:35;;;;;;;8.75;3.13;;;;;;;2.81;100.00;98631.19;5072995;28;20044;-60
2023/01/17 12:53:14;;;;;;;12.30;3.83;;;;;;;2.84;100.00;98628.38;5068590;28;20056;-60
2023/01/17 12:55:50;;;;;;;6.97;3.22;;;;;;;2.93;100.00;98636.47;5070087;28;20510;-60
2023/01/17 12:58:25;;;;;;;6.40;2.95;;;;;;;3.02;100.00;98628.84;5073121;28;20032;-60
2023/01/17 13:01:00;;;;;;;11.93;2.83;;;;;;;3.13;100.00;98629.91;5073255;28;20041;-60
2023/01/17 13:03:41;;;;;;;6.55;2.65;;;;;;;3.18;100.00;98627.81;5080162;28;20124;-60
2023/01/17 13:06:21;;;;;;;5.63;2.47;;;;;;;3.20;100.00;98625.94;5077670;28;20044;-60
2023/01/17 13:08:57;;;;;;;6.72;2.40;;;;;;;3.24;100.00;98619.56;5074074;28;20498;-60
2023/01/17 13:11:32;;;;;;;6.82;2.40;;;;;;;3.46;100.00;98621.47;5073236;28;20505;-60
2023/01/17 13:14:02;;;;;;;7.45;2.33;;;;;;;3.61;100.00;98623.94;5090864;28;20060;-60
2023/01/17 13:16:37;;;;;;;3.95;1.80;;;;;;;3.64;100.00;98628.91;5087570;28;20079;-60
2023/01/17 13:19:19;;;;;;;8.88;1.90;;;;;;;3.77;100.00;98624.50;5071327;28;20554;-60